createdAt,value
2023-02-11T00:00:24.872Z,-0.09
2023-02-11T00:02:52.175Z,-0.01
2023-02-11T00:05:19.811Z,0.17
2023-02-11T00:07:47.220Z,0.14
2023-02-11T00:10:14.514Z,0.19
2023-02-11T00:12:43.278Z,0.14
2023-02-11T00:15:10.579Z,0.10
2023-02-11T00:17:37.975Z,0.01
2023-02-11T00:20:08.182Z,-0.14
2023-02-11T00:22:35.820Z,-0.18
2023-02-11T00:25:03.076Z,-0.07
2023-02-11T00:27:30.658Z,-0.04
2023-02-11T00:29:57.947Z,0.02
2023-02-11T00:32:25.415Z,0.07
2023-02-11T00:34:53.284Z,0.20
2023-02-11T00:37:20.849Z,0.12
2023-02-11T00:39:48.355Z,0.06
2023-02-11T00:42:15.653Z,-0.09
2023-02-11T00:44:44.608Z,-0.18
2023-02-11T00:47:11.997Z,-0.21
2023-02-11T00:49:40.559Z,-0.32
2023-02-11T00:52:07.837Z,-0.18
2023-02-11T00:54:35.132Z,-0.21
2023-02-11T00:57:02.587Z,-0.36
2023-02-11T00:59:30.047Z,-0.50
2023-02-11T01:01:57.316Z,-0.32
2023-02-11T01:04:24.607Z,-0.57
2023-02-11T01:06:52.770Z,-0.73
2023-02-11T01:09:21.253Z,-0.72
2023-02-11T01:11:48.561Z,-0.62
2023-02-11T01:14:16.042Z,-0.74
2023-02-11T01:16:43.559Z,-0.80
2023-02-11T01:19:10.882Z,-0.87
2023-02-11T01:21:38.757Z,-0.79
2023-02-11T01:24:06.351Z,-0.79
2023-02-11T01:26:33.862Z,-0.62
2023-02-11T01:29:01.343Z,-0.79
2023-02-11T01:31:28.717Z,-0.74
2023-02-11T01:33:56.046Z,-0.90
2023-02-11T01:36:23.420Z,-0.91
2023-02-11T01:38:50.785Z,-1.05
2023-02-11T01:41:20.717Z,-1.17
2023-02-11T01:43:49.299Z,-1.07
2023-02-11T01:46:36.560Z,-1.25
2023-02-11T01:49:07.430Z,-1.45
2023-02-11T01:52:04.102Z,-1.44
2023-02-11T01:54:55.362Z,-1.35
2023-02-11T01:57:25.256Z,-1.35
2023-02-11T02:00:25.145Z,-1.14
2023-02-11T02:03:13.188Z,-1.15
2023-02-11T02:05:47.799Z,-1.04
2023-02-11T02:08:25.747Z,-1.07
2023-02-11T02:10:56.810Z,-1.11
2023-02-11T02:13:24.295Z,-0.91
2023-02-11T02:16:00.826Z,-0.70
2023-02-11T02:18:52.620Z,-0.79
2023-02-11T02:21:20.150Z,-0.94
2023-02-11T02:23:56.273Z,-0.91
2023-02-11T02:26:37.246Z,-0.98
2023-02-11T02:29:22.585Z,-1.25
2023-02-11T02:32:11.730Z,-1.27
2023-02-11T02:35:05.762Z,-1.46
2023-02-11T02:37:43.530Z,-1.27
2023-02-11T02:40:29.939Z,-1.46
2023-02-11T02:42:57.352Z,-1.66
2023-02-11T02:45:24.584Z,-1.79
2023-02-11T02:47:51.978Z,-1.77
2023-02-11T02:50:25.069Z,-1.56
2023-02-11T02:53:14.024Z,-1.44
2023-02-11T02:55:51.853Z,-1.45
2023-02-11T02:58:24.101Z,-1.46
2023-02-11T03:00:57.536Z,-1.49
2023-02-11T03:03:43.431Z,-1.58
2023-02-11T03:06:18.153Z,-1.58
2023-02-11T03:09:06.270Z,-1.35
2023-02-11T03:11:33.632Z,-1.35
2023-02-11T03:14:01.262Z,-1.34
2023-02-11T03:16:28.794Z,-1.54
2023-02-11T03:19:02.155Z,-1.55
2023-02-11T03:21:30.937Z,-1.59
2023-02-11T03:24:00.534Z,-1.60
2023-02-11T03:26:37.207Z,-1.59
2023-02-11T03:29:14.523Z,-1.69
2023-02-11T03:32:19.471Z,-1.65
2023-02-11T03:35:06.666Z,-1.77
2023-02-11T03:37:40.977Z,-1.79
2023-02-11T03:40:09.277Z,-1.87
2023-02-11T03:42:40.335Z,-1.82
2023-02-11T03:45:12.645Z,-1.73
2023-02-11T03:47:41.704Z,-1.67
2023-02-11T03:50:10.180Z,-1.66
2023-02-11T03:52:37.489Z,-1.98
2023-02-11T03:55:11.619Z,-2.13
2023-02-11T03:57:39.031Z,-2.23
2023-02-11T04:00:06.848Z,-2.44
2023-02-11T04:02:38.765Z,-2.66
2023-02-11T04:05:09.578Z,-2.51
2023-02-11T04:07:36.902Z,-2.44
2023-02-11T04:10:04.696Z,-2.28
2023-02-11T04:12:32.131Z,-2.03
2023-02-11T04:14:59.366Z,-1.85
2023-02-11T04:17:26.634Z,-1.86
2023-02-11T04:19:53.880Z,-1.86
2023-02-11T04:22:21.254Z,-1.77
2023-02-11T04:24:48.528Z,-1.86
2023-02-11T04:27:15.896Z,-1.82
2023-02-11T04:29:43.196Z,-1.90
2023-02-11T04:32:11.516Z,-1.94
2023-02-11T04:34:38.913Z,-2.08
2023-02-11T04:37:06.305Z,-2.14
2023-02-11T04:39:33.589Z,-2.34
2023-02-11T04:42:00.984Z,-2.31
2023-02-11T04:44:28.313Z,-2.35
2023-02-11T04:46:55.633Z,-2.54
2023-02-11T04:49:22.921Z,-2.61
2023-02-11T04:51:50.341Z,-2.55
2023-02-11T04:54:17.805Z,-2.56
2023-02-11T04:56:45.148Z,-2.48
2023-02-11T04:59:13.446Z,-2.42
2023-02-11T05:01:41.004Z,-2.33
2023-02-11T05:04:08.338Z,-2.34
2023-02-11T05:06:35.739Z,-2.24
2023-02-11T05:09:03.073Z,-2.18
2023-02-11T05:11:30.462Z,-2.38
2023-02-11T05:13:57.818Z,-2.42
2023-02-11T05:16:25.273Z,-2.31
2023-02-11T05:18:53.823Z,-2.17
2023-02-11T05:21:21.260Z,-2.21
2023-02-11T05:23:48.567Z,-2.25
2023-02-11T05:26:16.049Z,-2.28
2023-02-11T05:28:43.378Z,-2.44
2023-02-11T05:31:11.225Z,-2.46
2023-02-11T05:33:38.610Z,-2.37
2023-02-11T05:36:08.456Z,-2.44
2023-02-11T05:38:36.128Z,-2.41
2023-02-11T05:41:03.859Z,-2.33
2023-02-11T05:43:31.303Z,-2.10
2023-02-11T05:45:58.620Z,-2.18
2023-02-11T05:48:26.007Z,-2.24
2023-02-11T05:50:53.297Z,-2.03
2023-02-11T05:53:20.582Z,-2.08
2023-02-11T05:55:47.970Z,-2.28
2023-02-11T05:58:15.542Z,-2.17
2023-02-11T06:00:42.834Z,-2.24
2023-02-11T06:03:10.173Z,-2.38
2023-02-11T06:05:37.450Z,-2.70
2023-02-11T06:08:05.190Z,-2.73
2023-02-11T06:10:32.447Z,-2.69
2023-02-11T06:12:59.752Z,-2.37
2023-02-11T06:15:26.993Z,-2.13
2023-02-11T06:17:54.332Z,-2.27
2023-02-11T06:20:21.660Z,-2.42
2023-02-11T06:22:49.025Z,-2.56
2023-02-11T06:25:16.317Z,-2.33
2023-02-11T06:27:43.732Z,-2.55
2023-02-11T06:30:11.409Z,-2.52
2023-02-11T06:32:44.335Z,-2.33
2023-02-11T06:35:13.112Z,-2.37
2023-02-11T06:37:42.022Z,-2.38
2023-02-11T06:40:10.439Z,-2.08
2023-02-11T06:42:39.425Z,-1.60
2023-02-11T06:45:09.533Z,-1.38
2023-02-11T06:47:37.518Z,-1.18
2023-02-11T06:50:05.973Z,-1.11
2023-02-11T06:52:33.900Z,-1.05
2023-02-11T06:55:01.270Z,-1.07
2023-02-11T06:57:28.643Z,-0.94
2023-02-11T06:59:56.018Z,-0.91
2023-02-11T07:02:23.410Z,-0.60
2023-02-11T07:04:50.686Z,-0.73
2023-02-11T07:07:18.122Z,-0.87
2023-02-11T07:09:45.420Z,-0.91
2023-02-11T07:12:12.751Z,-0.86
2023-02-11T07:14:40.481Z,-0.88
2023-02-11T07:17:07.801Z,-0.87
2023-02-11T07:19:35.089Z,-1.01
2023-02-11T07:22:02.456Z,-0.98
2023-02-11T07:24:29.794Z,-1.04
2023-02-11T07:26:57.164Z,-1.00
2023-02-11T07:29:24.422Z,-0.83
2023-02-11T07:31:51.785Z,-0.87
2023-02-11T07:34:19.099Z,-0.79
2023-02-11T07:36:46.572Z,-0.60
2023-02-11T07:39:13.835Z,-0.53
2023-02-11T07:41:41.181Z,-0.49
2023-02-11T07:44:08.684Z,-0.38
2023-02-11T07:46:36.126Z,-0.43
2023-02-11T07:49:03.739Z,-0.42
2023-02-11T07:51:31.267Z,-0.46
2023-02-11T07:53:59.659Z,0.02
2023-02-11T07:56:27.542Z,0.10
2023-02-11T07:58:55.043Z,0.02
2023-02-11T08:01:28.430Z,0.64
2023-02-11T08:03:57.543Z,2.18
2023-02-11T08:06:26.232Z,3.01
2023-02-11T08:08:53.604Z,3.12
2023-02-11T08:11:28.283Z,2.61
2023-02-11T08:13:56.042Z,1.91
2023-02-11T08:16:28.166Z,1.38
2023-02-11T08:18:59.835Z,1.36
2023-02-11T08:21:27.353Z,1.22
2023-02-11T08:23:54.918Z,1.28
2023-02-11T08:26:24.715Z,1.49
2023-02-11T08:28:52.892Z,1.64
2023-02-11T08:31:22.297Z,1.73
2023-02-11T08:33:49.811Z,1.91
2023-02-11T08:36:19.059Z,1.94
2023-02-11T08:38:46.297Z,1.88
2023-02-11T08:41:15.069Z,1.82
2023-02-11T08:43:42.642Z,1.91
2023-02-11T08:46:14.144Z,1.95
2023-02-11T08:48:41.693Z,1.97
2023-02-11T08:51:10.247Z,2.01
2023-02-11T08:53:37.765Z,2.38
2023-02-11T08:56:05.461Z,2.64
2023-02-11T08:58:33.068Z,2.96
2023-02-11T09:01:00.419Z,3.35
2023-02-11T09:03:27.871Z,3.34
2023-02-11T09:05:55.233Z,3.29
2023-02-11T09:08:22.674Z,3.19
2023-02-11T09:10:50.358Z,3.11
2023-02-11T09:13:18.038Z,3.10
2023-02-11T09:15:46.506Z,3.35
2023-02-11T09:18:14.152Z,3.48
2023-02-11T09:20:41.560Z,3.63
2023-02-11T09:23:09.761Z,3.56
2023-02-11T09:25:40.386Z,3.69
2023-02-11T09:28:08.538Z,3.48
2023-02-11T09:30:39.075Z,3.52
2023-02-11T09:33:06.550Z,3.86
2023-02-11T09:35:34.680Z,3.87
2023-02-11T09:38:02.012Z,4.01
2023-02-11T09:40:29.315Z,4.13
2023-02-11T09:43:09.142Z,4.28
2023-02-11T09:45:36.685Z,4.35
2023-02-11T09:48:18.510Z,4.59
2023-02-11T09:50:57.433Z,4.80
2023-02-11T09:53:26.275Z,4.86
2023-02-11T09:55:59.699Z,4.56
2023-02-11T09:58:29.013Z,4.73
2023-02-11T10:01:11.564Z,4.82
2023-02-11T10:03:59.351Z,4.68
2023-02-11T10:06:45.842Z,4.52
2023-02-11T10:09:19.301Z,4.47
2023-02-11T10:12:03.212Z,4.41
2023-02-11T10:14:55.649Z,4.16
2023-02-11T10:17:53.840Z,4.41
2023-02-11T10:20:26.679Z,4.35
2023-02-11T10:22:55.326Z,4.34
2023-02-11T10:25:28.869Z,4.41
2023-02-11T10:27:58.212Z,4.65
2023-02-11T10:30:29.478Z,4.93
2023-02-11T10:33:12.097Z,5.16
2023-02-11T10:35:39.416Z,5.61
2023-02-11T10:38:07.811Z,5.71
2023-02-11T10:40:35.161Z,5.75
2023-02-11T10:43:05.081Z,5.95
2023-02-11T10:45:34.321Z,6.19
2023-02-11T10:48:02.271Z,6.78
2023-02-11T10:50:32.709Z,6.60
2023-02-11T10:53:12.237Z,6.65
2023-02-11T10:55:39.731Z,6.54
2023-02-11T10:58:07.018Z,6.01
2023-02-11T11:00:38.172Z,5.91
2023-02-11T11:03:22.282Z,5.61
2023-02-11T11:05:51.249Z,5.72
2023-02-11T11:08:21.526Z,5.81
2023-02-11T11:11:03.854Z,6.05
2023-02-11T11:13:36.016Z,6.43
2023-02-11T11:16:12.260Z,6.20
2023-02-11T11:18:46.253Z,6.27
2023-02-11T11:21:27.343Z,6.12
2023-02-11T11:23:59.492Z,6.33
2023-02-11T11:26:51.059Z,6.61
2023-02-11T11:29:31.420Z,6.75
2023-02-11T11:32:04.935Z,6.92
2023-02-11T11:34:33.227Z,6.87
2023-02-11T11:37:02.500Z,6.92
2023-02-11T11:39:31.413Z,6.87
2023-02-11T11:42:03.342Z,7.02
2023-02-11T11:44:37.532Z,6.98
2023-02-11T11:47:25.600Z,6.68
2023-02-11T11:50:27.843Z,6.38
2023-02-11T11:53:04.612Z,6.38
2023-02-11T11:55:51.719Z,6.53
2023-02-11T11:58:22.789Z,6.67
2023-02-11T12:01:02.129Z,6.68
2023-02-11T12:03:33.326Z,6.81
2023-02-11T12:06:09.364Z,6.77
2023-02-11T12:08:36.641Z,6.67
2023-02-11T12:11:08.096Z,6.94
2023-02-11T12:14:03.390Z,7.27
2023-02-11T12:16:45.472Z,7.37
2023-02-11T12:19:34.791Z,7.43
2023-02-11T12:22:10.613Z,7.74
2023-02-11T12:25:00.403Z,7.92
2023-02-11T12:27:30.718Z,7.59
2023-02-11T12:30:27.073Z,7.54
2023-02-11T12:33:33.039Z,7.56
2023-02-11T12:36:41.899Z,7.53
2023-02-11T12:39:36.581Z,7.50
2023-02-11T12:42:25.458Z,7.84
2023-02-11T12:45:11.023Z,7.77
2023-02-11T12:47:45.908Z,7.83
2023-02-11T12:50:53.646Z,7.83
2023-02-11T12:53:36.154Z,8.25
2023-02-11T12:56:19.999Z,8.06
2023-02-11T12:58:48.004Z,8.26
2023-02-11T13:01:19.570Z,8.45
2023-02-11T13:04:11.773Z,8.18
2023-02-11T13:06:41.956Z,8.08
2023-02-11T13:09:19.010Z,8.08
2023-02-11T13:11:52.148Z,8.04
2023-02-11T13:14:29.240Z,8.05
2023-02-11T13:16:58.591Z,8.05
2023-02-11T13:19:57.120Z,8.20
2023-02-11T13:22:59.408Z,8.28
2023-02-11T13:25:31.578Z,8.36
2023-02-11T13:28:14.533Z,8.56
2023-02-11T13:30:47.292Z,8.42
2023-02-11T13:33:20.107Z,8.36
2023-02-11T13:36:11.881Z,8.32
2023-02-11T13:38:39.380Z,8.29
2023-02-11T13:41:06.933Z,8.22
2023-02-11T13:43:35.444Z,8.08
2023-02-11T13:46:04.732Z,8.14
2023-02-11T13:48:34.909Z,8.08
2023-02-11T13:51:04.625Z,8.25
2023-02-11T13:53:54.754Z,8.15
2023-02-11T13:56:31.103Z,8.25
2023-02-11T13:59:01.905Z,8.14
2023-02-11T14:02:06.602Z,8.14
2023-02-11T14:04:52.771Z,7.99
2023-02-11T14:07:45.551Z,7.92
2023-02-11T14:10:43.833Z,7.91
2023-02-11T14:13:23.573Z,7.92
2023-02-11T14:16:20.378Z,8.04
2023-02-11T14:18:55.859Z,7.91
2023-02-11T14:21:30.434Z,8.04
2023-02-11T14:24:07.198Z,7.98
2023-02-11T14:26:57.921Z,7.88
2023-02-11T14:29:37.376Z,7.97
2023-02-11T14:32:29.675Z,7.92
2023-02-11T14:35:10.810Z,7.87
2023-02-11T14:37:50.886Z,7.84
2023-02-11T14:40:30.768Z,7.99
2023-02-11T14:42:58.876Z,7.99
2023-02-11T14:45:27.678Z,8.05
2023-02-11T14:48:05.724Z,8.05
2023-02-11T14:50:45.522Z,8.09
2023-02-11T14:53:15.824Z,7.78
2023-02-11T14:55:43.659Z,7.77
2023-02-11T14:58:18.321Z,7.84
2023-02-11T15:00:50.060Z,7.84
2023-02-11T15:03:39.823Z,7.81
2023-02-11T15:06:18.466Z,7.75
2023-02-11T15:08:58.373Z,7.62
2023-02-11T15:11:26.066Z,7.49
2023-02-11T15:13:55.510Z,7.11
2023-02-11T15:16:24.004Z,7.05
2023-02-11T15:18:56.215Z,6.87
2023-02-11T15:21:28.758Z,6.80
2023-02-11T15:24:03.536Z,6.85
2023-02-11T15:26:31.030Z,6.68
2023-02-11T15:28:58.303Z,6.54
2023-02-11T15:31:26.793Z,6.57
2023-02-11T15:33:54.420Z,6.58
2023-02-11T15:36:28.377Z,6.71
2023-02-11T15:39:18.567Z,6.64
2023-02-11T15:41:46.030Z,6.77
2023-02-11T15:44:30.456Z,6.71
2023-02-11T15:46:57.899Z,6.60
2023-02-11T15:49:25.772Z,6.61
2023-02-11T15:51:54.105Z,6.78
2023-02-11T15:54:24.139Z,6.92
2023-02-11T15:56:52.092Z,6.74
2023-02-11T15:59:30.705Z,6.74
2023-02-11T16:01:58.734Z,6.65
2023-02-11T16:04:26.798Z,6.48
2023-02-11T16:06:54.817Z,6.29
2023-02-11T16:09:33.372Z,6.17
2023-02-11T16:12:07.637Z,6.22
2023-02-11T16:14:39.488Z,6.27
2023-02-11T16:17:12.553Z,6.36
2023-02-11T16:19:44.423Z,6.40
2023-02-11T16:22:15.117Z,6.26
2023-02-11T16:24:42.431Z,6.10
2023-02-11T16:27:18.802Z,6.13
2023-02-11T16:29:47.840Z,6.13
2023-02-11T16:32:19.181Z,6.12
2023-02-11T16:34:47.931Z,6.05
2023-02-11T16:37:15.288Z,6.15
2023-02-11T16:39:42.587Z,6.29
2023-02-11T16:42:11.347Z,6.20
2023-02-11T16:44:38.782Z,6.37
2023-02-11T16:47:08.178Z,6.36
2023-02-11T16:49:41.155Z,6.32
2023-02-11T16:52:14.527Z,6.30
2023-02-11T16:54:41.952Z,6.27
2023-02-11T16:57:16.048Z,6.23
2023-02-11T16:59:43.789Z,6.36
2023-02-11T17:02:23.628Z,6.46
2023-02-11T17:04:53.494Z,6.13
2023-02-11T17:07:20.957Z,5.81
2023-02-11T17:09:48.320Z,5.88
2023-02-11T17:12:15.684Z,5.86
2023-02-11T17:14:42.954Z,5.69
2023-02-11T17:17:10.958Z,5.61
2023-02-11T17:19:38.327Z,5.59
2023-02-11T17:22:05.914Z,5.65
2023-02-11T17:24:33.215Z,5.74
2023-02-11T17:27:00.609Z,5.68
2023-02-11T17:29:27.945Z,5.71
2023-02-11T17:31:55.572Z,5.84
2023-02-11T17:34:23.172Z,5.76
2023-02-11T17:36:50.716Z,5.89
2023-02-11T17:39:19.364Z,5.81
2023-02-11T17:41:46.735Z,5.79
2023-02-11T17:44:15.631Z,5.94
2023-02-11T17:46:43.267Z,5.92
2023-02-11T17:49:11.825Z,5.69
2023-02-11T17:51:39.487Z,5.55
2023-02-11T17:54:14.744Z,5.54
2023-02-11T17:56:42.274Z,5.71
2023-02-11T17:59:09.983Z,5.76
2023-02-11T18:01:37.868Z,5.98
2023-02-11T18:04:05.879Z,5.88
2023-02-11T18:06:36.362Z,5.54
2023-02-11T18:09:04.558Z,5.34
2023-02-11T18:11:32.787Z,5.36
2023-02-11T18:14:01.234Z,5.26
2023-02-11T18:16:30.084Z,5.28
2023-02-11T18:18:58.163Z,5.15
2023-02-11T18:21:25.794Z,5.07
2023-02-11T18:23:53.361Z,5.20
2023-02-11T18:26:21.917Z,5.19
2023-02-11T18:28:49.404Z,5.27
2023-02-11T18:31:17.336Z,5.33
2023-02-11T18:33:44.997Z,5.36
2023-02-11T18:36:13.917Z,5.55
2023-02-11T18:38:41.507Z,5.51
2023-02-11T18:41:09.012Z,5.19
2023-02-11T18:43:36.658Z,5.05
2023-02-11T18:46:07.980Z,5.16
2023-02-11T18:48:35.544Z,5.05
2023-02-11T18:51:02.877Z,5.15
2023-02-11T18:53:30.264Z,5.33
2023-02-11T18:55:57.577Z,5.51
2023-02-11T18:58:24.988Z,5.47
2023-02-11T19:00:52.251Z,5.51
2023-02-11T19:03:19.624Z,5.47
2023-02-11T19:05:48.162Z,5.69
2023-02-11T19:08:15.786Z,5.79
2023-02-11T19:10:44.325Z,5.91
2023-02-11T19:13:14.660Z,5.88
2023-02-11T19:15:46.183Z,5.57
2023-02-11T19:18:14.391Z,5.47
2023-02-11T19:20:42.833Z,5.48
2023-02-11T19:23:10.468Z,5.37
2023-02-11T19:25:38.045Z,5.38
2023-02-11T19:28:05.524Z,5.28
2023-02-11T19:30:33.025Z,5.15
2023-02-11T19:33:00.468Z,5.06
2023-02-11T19:35:27.782Z,5.26
2023-02-11T19:37:55.176Z,5.30
2023-02-11T19:40:22.919Z,5.37
2023-02-11T19:42:50.563Z,5.36
2023-02-11T19:45:18.227Z,5.51
2023-02-11T19:47:45.549Z,5.58
2023-02-11T19:50:12.976Z,5.31
2023-02-11T19:52:40.905Z,5.40
2023-02-11T19:55:08.475Z,5.24
2023-02-11T19:57:36.678Z,4.96
2023-02-11T20:00:04.562Z,4.89
2023-02-11T20:02:40.118Z,4.86
2023-02-11T20:05:07.845Z,4.79
2023-02-11T20:07:35.422Z,4.85
2023-02-11T20:10:02.820Z,5.07
2023-02-11T20:12:30.126Z,4.96
2023-02-11T20:14:57.701Z,5.09
2023-02-11T20:17:25.133Z,5.01
2023-02-11T20:19:52.829Z,5.10
2023-02-11T20:22:20.228Z,5.07
2023-02-11T20:24:47.574Z,5.13
2023-02-11T20:27:14.887Z,5.13
2023-02-11T20:29:42.316Z,5.36
2023-02-11T20:32:10.963Z,5.16
2023-02-11T20:34:38.371Z,5.01
2023-02-11T20:37:06.874Z,4.86
2023-02-11T20:39:35.681Z,4.79
2023-02-11T20:42:03.049Z,4.72
2023-02-11T20:44:30.376Z,4.71
2023-02-11T20:46:57.700Z,4.71
2023-02-11T20:49:25.212Z,4.86
2023-02-11T20:51:53.976Z,5.16
2023-02-11T20:54:21.904Z,5.26
2023-02-11T20:56:51.278Z,5.12
2023-02-11T20:59:18.985Z,5.03
2023-02-11T21:01:48.780Z,5.09
2023-02-11T21:04:18.590Z,5.34
2023-02-11T21:06:50.785Z,5.54
2023-02-11T21:09:20.021Z,5.52
2023-02-11T21:11:47.671Z,5.41
2023-02-11T21:14:15.409Z,5.44
2023-02-11T21:16:42.772Z,5.34
2023-02-11T21:19:10.197Z,5.28
2023-02-11T21:21:37.648Z,5.26
2023-02-11T21:24:05.822Z,5.27
2023-02-11T21:26:33.595Z,5.15
2023-02-11T21:29:01.804Z,5.10
2023-02-11T21:31:30.122Z,5.10
2023-02-11T21:33:59.545Z,4.93
2023-02-11T21:36:27.743Z,4.97
2023-02-11T21:38:55.238Z,5.26
2023-02-11T21:41:22.646Z,5.13
2023-02-11T21:43:50.628Z,5.07
2023-02-11T21:46:18.406Z,4.90
2023-02-11T21:48:45.905Z,4.83
2023-02-11T21:51:18.001Z,4.82
2023-02-11T21:53:45.596Z,4.89
2023-02-11T21:56:17.247Z,5.10
2023-02-11T21:58:45.402Z,5.10
2023-02-11T22:01:19.009Z,5.20
2023-02-11T22:03:46.607Z,5.33
2023-02-11T22:06:15.834Z,5.09
2023-02-11T22:08:43.292Z,4.99
2023-02-11T22:11:12.347Z,4.90
2023-02-11T22:13:40.163Z,4.95
2023-02-11T22:16:09.437Z,5.05
2023-02-11T22:18:37.128Z,5.20
2023-02-11T22:21:10.325Z,5.28
2023-02-11T22:23:37.822Z,5.55
2023-02-11T22:26:07.120Z,5.40
2023-02-11T22:28:35.544Z,5.41
2023-02-11T22:31:02.940Z,5.50
2023-02-11T22:33:30.407Z,5.44
2023-02-11T22:36:01.891Z,5.40
2023-02-11T22:38:29.766Z,5.37
2023-02-11T22:40:58.478Z,5.38
2023-02-11T22:43:25.977Z,5.27
2023-02-11T22:45:56.413Z,5.22
2023-02-11T22:48:24.092Z,5.15
2023-02-11T22:50:51.367Z,5.23
2023-02-11T22:53:18.815Z,5.37
2023-02-11T22:55:46.105Z,5.58
2023-02-11T22:58:13.421Z,5.92
2023-02-11T23:00:41.139Z,6.26
2023-02-11T23:03:08.828Z,6.54
2023-02-11T23:05:40.020Z,6.73
2023-02-11T23:08:10.932Z,6.88
2023-02-11T23:10:38.716Z,6.99
2023-02-11T23:13:06.522Z,7.04
2023-02-11T23:15:34.014Z,7.08
2023-02-11T23:18:01.316Z,7.27
2023-02-11T23:20:28.707Z,7.26
2023-02-11T23:22:56.020Z,7.27
2023-02-11T23:25:23.370Z,7.40
2023-02-11T23:27:50.589Z,7.56
2023-02-11T23:30:18.495Z,7.64
2023-02-11T23:32:46.220Z,7.69
2023-02-11T23:35:22.003Z,7.71
2023-02-11T23:37:49.655Z,7.77
2023-02-11T23:40:17.489Z,7.84
2023-02-11T23:42:45.700Z,7.83
2023-02-11T23:45:13.061Z,7.85
2023-02-11T23:47:41.711Z,7.88
2023-02-11T23:50:09.986Z,7.95
2023-02-11T23:52:37.306Z,7.91
2023-02-11T23:55:05.002Z,7.95
2023-02-11T23:57:33.336Z,7.91
